Bay Minette, Alabama
Current Conditions -  °F | °C
As of 5:53 AM on Saturday 20 Dec 2014 (Local Time) from KBFM Reporting Station
Light Rain Light Rain  
Wind Chill: 43°   Ceiling: 800
Heat Index: 48°   Visibility: 9mi
Dew Point: 46°   Wind: 13mph
Humidity: 93%   Direction: 350°N
Pressure: 30.15"   Gusts: NA
Location:  30.88°N, 87.77°W
Report Text: KBFM 201153Z 35011KT 9SM -RA OVC008 09/08 A3015 RMK AO2 SLP207 P0004 60017 70096 T00890078 10100 20089 53014
Loading
Personal Weather Stations






























Interactive Weather Map New forecast layout! Learn more

10-Day Weather Forecast

Advertisements
Track Severe Weather on mobile